Pleasant Plains, Illinois
Current Conditions -  °F | °C
As of 4:52 PM on Thursday 27 Nov 2014 (Local Time) from KSPI Reporting Station
Clear Clear  
Wind Chill: 11°   Ceiling: Unl
Heat Index: 21°   Visibility: 10mi
Dew Point: 12°   Wind: 8mph
Humidity: 68%   Direction: 300°WNW
Pressure: 30.47"   Gusts: NA
Location:  39.87°N, 89.92°W
Report Text: KSPI 272252Z 30007KT 10SM CLR M06/M11 A3047 RMK AO2 SLP328 T10611111
Loading
Personal Weather Stations






























Interactive Weather Map New forecast layout! Learn more

10-Day Weather Forecast

Advertisements
Track Severe Weather on mobile